Hauptseite
METAR-TAF:

METAR-TAF

Flughäfen :

Büchel, Deutschland

Fliegerhorst Büchel

Breite: 50-10N, Länge: 007-04E, Höhe: 478 m

Beobachtung

Neuester Wetterbericht von vor 33 Minuten, um 08:20 UTC
Wind 15 kt aus Südwest, Böen bis zu 27 kt
Temperatur 8°C
Luftfeuchtigkeit 71%
Luftdruck 1005 hPa
Sichtweite 10 km oder mehr

METAR: ETSB 270820Z AUTO 22015G27KT 9999 // ////// 08/03 Q1005 ///

Zeit: 09:53 (08:53 UTC)


TAF: fehlend

Wetterbeobachtungen und Prognosen von mehr als 4000 Flughäfen (METAR und TAF Bericht).

Die verfügbaren Stationen werden durch gelbe und rote Markierungen auf der Karte dargestellt.

Führen Sie die Maus auf sie, um den Namen der Station zu sehen.

Darauf klicken, um die Beobachtung von Wetterbeobachtungen und Prognosen zu sehen.

Um die Karte zu ändern : klicken Sie auf den grünen Tasten mit einem schwarzen Kreuz Zum Vergrößern, auf den grünen Button mit einem Gedankenstrich zu verkleinern, oder auf die grünen Pfeile für benachbarte Karten.


METAR-TAF: